Time;durP1;ratioP1;P1;durP2;ratioP2;P2;SDS_P1;SDS_P2;PMS_P1;PMS_P2;Temp;Humidity;BMP_temperature;BMP_pressure;BME280_temperature;BME280_humidity;BME280_pressure;Samples;Min_cycle;Max_cycle;Signal;HPM_P1;HPM_P2
2022/04/07 00:00:13;;;;;;;;;13.60;13.00;;;;;14.50;46.53;97165.38;6101333;28;96204;-70
2022/04/07 00:03:17;;;;;;;;;12.40;11.60;;;;;14.70;46.20;97172.47;6087109;28;96746;-71
2022/04/07 00:06:21;;;;;;;;;10.60;9.60;;;;;14.73;45.97;97169.97;6098879;28;97491;-70
2022/04/07 00:09:24;;;;;;;;;11.40;9.40;;;;;14.78;45.91;97166.41;6085207;28;96518;-70
2022/04/07 00:12:27;;;;;;;;;13.00;10.75;;;;;14.86;45.66;97168.44;6086037;28;97438;-70
2022/04/07 00:15:31;;;;;;;;;9.20;9.20;;;;;14.95;45.32;97164.03;6070118;28;98821;-69
2022/04/07 00:18:36;;;;;;;;;11.00;10.60;;;;;15.03;45.21;97154.41;6125997;28;96922;-70
2022/04/07 00:21:41;;;;;;;;;12.00;10.00;;;;;15.14;45.08;97155.88;6130801;28;96405;-69
2022/04/07 00:24:45;;;;;;;;;10.00;9.00;;;;;15.21;44.79;97145.47;6085404;28;97681;-69
2022/04/07 00:27:48;;;;;;;;;11.00;10.33;;;;;15.29;44.72;97139.38;6076205;28;97940;-70
2022/04/07 00:30:51;;;;;;;;;11.40;10.40;;;;;15.38;44.30;97137.63;6084033;28;98293;-70
2022/04/07 00:33:56;;;;;;;;;8.00;8.00;;;;;15.42;43.66;97138.63;6170682;28;97451;-70
2022/04/07 00:36:59;;;;;;;;;7.60;6.60;;;;;15.46;43.50;97133.41;6115564;28;97458;-70
2022/04/07 00:40:02;;;;;;;;;8.00;7.00;;;;;15.50;43.48;97129.81;6087044;28;96784;-69
2022/04/07 00:43:06;;;;;;;;;8.00;7.80;;;;;15.40;43.12;97102.81;6090165;28;97449;-70
2022/04/07 00:46:09;;;;;;;;;7.00;7.00;;;;;15.61;42.93;97119.63;6088753;28;96363;-70
2022/04/07 00:49:14;;;;;;;;;8.00;8.00;;;;;15.79;42.51;97134.25;6090283;28;96451;-70
2022/04/07 00:52:19;;;;;;;;;7.00;7.00;;;;;15.90;42.38;97127.56;6082245;28;100049;-68
2022/04/07 00:55:23;;;;;;;;;8.20;8.00;;;;;15.96;42.29;97127.19;6087023;28;98871;-70
2022/04/07 00:58:29;;;;;;;;;8.00;7.00;;;;;16.08;41.82;97115.03;6089997;28;97980;-70
2022/04/07 01:01:33;;;;;;;;;7.00;7.00;;;;;16.11;42.10;97117.94;6090012;28;96846;-70
2022/04/07 01:04:38;;;;;;;;;9.00;8.00;;;;;16.09;42.28;97116.63;6088777;28;97128;-70
2022/04/07 01:07:43;;;;;;;;;9.00;7.00;;;;;15.90;42.92;97114.78;6107762;28;97438;-70
2022/04/07 01:10:48;;;;;;;;;7.80;7.20;;;;;15.83;43.38;97113.56;6207322;28;96573;-71
2022/04/07 01:13:53;;;;;;;;;9.40;9.00;;;;;15.71;43.62;97099.63;6096156;28;96470;-70
2022/04/07 01:16:56;;;;;;;;;8.50;8.25;;;;;15.67;43.92;97098.63;6089584;28;96532;-70
2022/04/07 01:20:01;;;;;;;;;9.00;8.00;;;;;15.65;43.77;97101.63;6088271;28;96499;-70
2022/04/07 01:23:07;;;;;;;;;8.60;8.00;;;;;15.64;43.57;97088.38;6089646;28;97587;-70
2022/04/07 01:26:13;;;;;;;;;7.50;7.50;;;;;15.75;43.67;97101.44;6099247;28;98045;-70
2022/04/07 01:29:19;;;;;;;;;8.40;7.00;;;;;15.79;43.62;97099.75;6105119;28;98047;-70
2022/04/07 01:32:29;;;;;;;;;7.00;7.00;;;;;15.79;43.70;97102.47;6089482;28;96567;-71
2022/04/07 01:35:32;;;;;;;;;7.00;7.00;;;;;15.75;43.22;97082.44;6071887;28;99565;-69
2022/04/07 01:38:38;;;;;;;;;8.00;8.00;;;;;15.86;42.85;97092.03;6089910;28;97629;-69
2022/04/07 01:41:44;;;;;;;;;9.00;8.25;;;;;15.83;43.32;97091.84;6090609;28;96770;-71
2022/04/07 01:44:51;;;;;;;;;9.00;9.00;;;;;15.41;43.81;97052.84;6151920;28;97660;-71
2022/04/07 01:47:55;;;;;;;;;9.60;9.60;;;;;15.43;44.09;97072.38;6089656;28;96538;-70
2022/04/07 01:50:59;;;;;;;;;8.00;8.00;;;;;15.35;44.56;97073.03;6086888;28;99707;-71
2022/04/07 01:54:03;;;;;;;;;8.00;8.00;;;;;15.33;44.10;97072.53;6090601;28;96319;-71
2022/04/07 01:57:08;;;;;;;;;9.80;7.00;;;;;15.37;44.15;97067.31;6070908;28;96468;-69
2022/04/07 02:00:13;;;;;;;;;8.80;8.00;;;;;15.43;43.74;97063.41;6088782;28;97806;-70
2022/04/07 02:03:16;;;;;;;;;9.00;9.00;;;;;15.54;43.31;97064.91;6091019;28;96842;-70
2022/04/07 02:06:20;;;;;;;;;7.25;6.00;;;;;15.65;43.23;97068.22;6087281;28;98724;-70
2022/04/07 02:09:24;;;;;;;;;7.00;7.00;;;;;15.75;42.77;97074.28;6088311;28;96630;-69
2022/04/07 02:12:29;;;;;;;;;8.00;6.00;;;;;15.90;42.60;97082.16;6089065;28;98283;-69
2022/04/07 02:15:32;;;;;;;;;8.00;7.00;;;;;16.02;42.52;97087.13;6087327;28;98306;-70
2022/04/07 02:18:36;;;;;;;;;8.50;8.00;;;;;16.12;42.32;97080.69;6102664;28;97501;-71
2022/04/07 02:21:39;;;;;;;;;12.00;10.00;;;;;16.11;42.39;97079.88;6071550;28;96709;-70
2022/04/07 02:24:43;;;;;;;;;10.00;9.40;;;;;16.07;42.39;97073.44;6086373;28;96748;-70
2022/04/07 02:27:50;;;;;;;;;9.60;9.00;;;;;16.06;42.50;97090.03;6122025;28;96329;-70
2022/04/07 02:30:53;;;;;;;;;14.60;13.60;;;;;16.02;42.82;97098.00;6086842;28;96541;-70
2022/04/07 02:33:57;;;;;;;;;12.00;12.00;;;;;15.95;42.97;97092.13;6110710;28;96556;-71
2022/04/07 02:37:00;;;;;;;;;15.00;14.00;;;;;15.89;43.06;97115.06;6082191;28;96411;-71
2022/04/07 02:40:04;;;;;;;;;13.00;12.00;;;;;15.79;43.16;97107.91;6071152;28;99301;-70
2022/04/07 02:43:09;;;;;;;;;18.00;15.00;;;;;15.74;43.43;97118.03;6070430;28;96497;-70
2022/04/07 02:46:12;;;;;;;;;15.80;14.20;;;;;15.66;43.47;97113.31;6089582;28;97027;-70
2022/04/07 02:49:15;;;;;;;;;19.40;16.00;;;;;15.58;43.63;97121.03;6087296;28;97390;-70
2022/04/07 02:52:19;;;;;;;;;17.00;15.40;;;;;15.48;43.73;97109.50;6086563;28;98560;-70
2022/04/07 02:55:24;;;;;;;;;17.40;14.00;;;;;15.31;44.07;97099.16;6088195;28;96291;-70
2022/04/07 02:58:28;;;;;;;;;17.00;13.60;;;;;15.18;44.45;97111.59;6087454;28;97417;-69
2022/04/07 03:01:31;;;;;;;;;15.00;13.00;;;;;15.06;44.72;97100.34;6084498;28;97515;-71
2022/04/07 03:04:35;;;;;;;;;15.60;14.00;;;;;15.00;44.96;97096.09;6091640;28;97949;-71
2022/04/07 03:07:38;;;;;;;;;18.00;14.00;;;;;14.95;45.08;97106.22;6087310;28;96368;-69
2022/04/07 03:10:41;;;;;;;;;18.00;14.25;;;;;14.88;45.18;97106.59;6085505;28;98554;-70
2022/04/07 03:13:46;;;;;;;;;15.20;14.00;;;;;14.87;45.09;97098.72;6088140;28;97353;-70
2022/04/07 03:16:49;;;;;;;;;17.00;15.00;;;;;14.85;45.17;97096.31;6085194;28;98666;-70
2022/04/07 03:19:53;;;;;;;;;14.60;12.20;;;;;14.90;45.06;97109.00;6086329;28;98436;-69
2022/04/07 03:22:56;;;;;;;;;18.20;15.20;;;;;14.91;44.89;97097.84;6086774;28;96865;-70
2022/04/07 03:26:01;;;;;;;;;16.00;15.00;;;;;14.94;44.93;97099.19;6140797;28;97421;-70
2022/04/07 03:29:06;;;;;;;;;16.75;16.00;;;;;14.96;44.78;97099.69;6194228;28;96257;-70
2022/04/07 03:32:10;;;;;;;;;19.40;17.80;;;;;14.99;44.66;97099.13;6085435;28;97322;-69
2022/04/07 03:35:13;;;;;;;;;19.40;17.00;;;;;15.06;44.58;97108.50;6086691;28;96678;-70
2022/04/07 03:38:17;;;;;;;;;20.00;17.00;;;;;14.83;44.55;97068.66;6085843;28;98279;-70
2022/04/07 03:41:20;;;;;;;;;18.20;15.20;;;;;15.08;44.47;97098.16;6080160;28;99572;-71
2022/04/07 03:44:25;;;;;;;;;19.75;16.00;;;;;15.14;44.36;97102.41;6086449;28;96794;-70
2022/04/07 03:47:28;;;;;;;;;18.75;15.75;;;;;15.21;44.36;97088.47;6100277;28;96357;-69
2022/04/07 03:50:32;;;;;;;;;17.00;15.40;;;;;15.28;43.92;97091.63;6117121;28;97380;-70
2022/04/07 03:53:35;;;;;;;;;16.60;15.60;;;;;15.29;44.05;97090.53;6096472;28;96593;-71
2022/04/07 03:56:39;;;;;;;;;20.33;16.33;;;;;15.23;44.10;97090.88;6084702;28;98798;-71
2022/04/07 03:59:43;;;;;;;;;18.00;16.00;;;;;15.20;44.18;97086.06;6094804;28;96316;-70
2022/04/07 04:02:48;;;;;;;;;16.80;15.40;;;;;14.88;44.28;97052.31;6092908;28;97240;-69
2022/04/07 04:05:51;;;;;;;;;16.33;14.33;;;;;15.18;44.32;97087.16;6087325;28;97449;-70
2022/04/07 04:08:54;;;;;;;;;16.60;15.60;;;;;15.25;44.24;97096.84;6088749;28;96448;-71
2022/04/07 04:11:58;;;;;;;;;14.40;13.60;;;;;15.28;44.06;97082.66;6069822;28;98577;-70
2022/04/07 04:15:03;;;;;;;;;14.60;13.00;;;;;15.39;43.81;97090.38;6077381;28;96514;-70
2022/04/07 04:18:06;;;;;;;;;14.50;12.00;;;;;15.50;43.60;97094.50;6080967;28;96737;-69
2022/04/07 04:21:10;;;;;;;;;12.00;11.00;;;;;15.59;43.37;97083.78;6082331;28;96369;-69
2022/04/07 04:24:13;;;;;;;;;13.00;12.50;;;;;15.58;43.14;97072.16;6113158;28;98204;-70
2022/04/07 04:27:17;;;;;;;;;13.60;12.00;;;;;15.84;43.01;97088.78;6105419;28;98504;-71
2022/04/07 04:30:22;;;;;;;;;15.40;13.00;;;;;15.96;42.81;97094.56;6089817;28;96814;-70
2022/04/07 04:33:26;;;;;;;;;14.80;13.80;;;;;16.08;42.61;97096.00;6106831;28;97978;-70
2022/04/07 04:36:34;;;;;;;;;11.80;10.80;;;;;16.17;42.60;97095.00;6087326;28;100096;-70
2022/04/07 04:39:38;;;;;;;;;14.50;12.50;;;;;16.29;42.34;97100.72;6087541;28;96926;-71
2022/04/07 04:42:42;;;;;;;;;14.60;13.00;;;;;16.40;42.25;97113.03;6097401;28;96872;-70
2022/04/07 04:45:47;;;;;;;;;14.00;13.00;;;;;16.50;42.23;97103.88;6097004;28;96511;-69
2022/04/07 04:48:51;;;;;;;;;14.60;13.00;;;;;16.53;42.21;97107.88;6094229;28;97077;-71
2022/04/07 04:51:54;;;;;;;;;15.40;12.40;;;;;16.60;42.10;97113.75;6088778;28;97378;-70
2022/04/07 04:54:57;;;;;;;;;17.00;14.00;;;;;16.66;41.94;97098.94;6087944;28;96737;-70
2022/04/07 04:58:01;;;;;;;;;15.80;14.00;;;;;16.76;41.69;97101.47;6088587;28;96877;-71
2022/04/07 05:01:05;;;;;;;;;16.60;14.60;;;;;16.85;41.51;97105.06;6112079;28;97685;-70
2022/04/07 05:04:08;;;;;;;;;14.80;12.80;;;;;16.95;41.33;97107.56;6071307;28;97798;-70
2022/04/07 05:07:13;;;;;;;;;17.00;14.00;;;;;17.04;41.32;97091.31;6089506;28;96309;-70
2022/04/07 05:10:16;;;;;;;;;15.60;15.00;;;;;17.12;41.19;97102.28;6090034;28;98057;-70
2022/04/07 05:13:21;;;;;;;;;14.75;14.00;;;;;17.20;40.93;97095.31;6088688;28;96440;-70
2022/04/07 05:16:25;;;;;;;;;19.00;17.00;;;;;17.27;40.85;97091.03;6090003;28;97347;-70
2022/04/07 05:19:29;;;;;;;;;17.50;16.00;;;;;17.38;40.91;97101.69;6088354;28;96410;-70
2022/04/07 05:22:32;;;;;;;;;15.40;14.40;;;;;17.49;40.83;97097.63;6090436;28;96730;-70
2022/04/07 05:25:35;;;;;;;;;15.00;14.00;;;;;17.59;40.81;97097.41;6086245;28;96605;-70
2022/04/07 05:28:38;;;;;;;;;18.00;15.00;;;;;17.72;40.91;97096.53;6087557;28;97444;-70
2022/04/07 05:31:43;;;;;;;;;17.40;15.00;;;;;17.83;40.24;97100.59;6087613;28;96479;-70
2022/04/07 05:34:47;;;;;;;;;19.00;17.00;;;;;18.02;40.07;97100.38;6086128;28;97299;-70
2022/04/07 05:37:50;;;;;;;;;16.00;14.00;;;;;18.13;40.18;97091.59;6086627;28;97384;-70
2022/04/07 05:40:54;;;;;;;;;16.40;15.00;;;;;18.18;39.75;97099.66;6084256;28;96999;-71
2022/04/07 05:43:57;;;;;;;;;16.20;15.00;;;;;18.24;39.64;97096.78;6086823;28;96608;-71
2022/04/07 05:47:02;;;;;;;;;15.25;14.00;;;;;18.22;39.26;97093.59;6085754;28;98393;-69
2022/04/07 05:50:06;;;;;;;;;12.25;11.25;;;;;18.32;39.36;97085.13;6087218;28;97448;-70
2022/04/07 05:53:10;;;;;;;;;9.00;9.00;;;;;18.33;39.70;97081.25;6102331;28;96472;-69
2022/04/07 05:56:13;;;;;;;;;11.75;10.25;;;;;18.19;39.74;97067.72;6087259;28;97376;-69
2022/04/07 05:59:16;;;;;;;;;9.00;9.00;;;;;18.23;40.18;97065.97;6087731;28;97465;-69
2022/04/07 06:02:24;;;;;;;;;8.00;8.00;;;;;18.18;40.65;97063.38;6087157;28;98085;-69
2022/04/07 06:05:27;;;;;;;;;6.00;5.40;;;;;18.24;40.64;97059.41;6173567;28;96805;-69
2022/04/07 06:08:30;;;;;;;;;8.00;7.00;;;;;18.31;40.00;97054.31;6214766;28;97294;-69
2022/04/07 06:11:34;;;;;;;;;7.00;7.00;;;;;18.35;39.95;97049.03;6212810;28;96623;-70
2022/04/07 06:14:37;;;;;;;;;8.00;7.00;;;;;18.50;39.72;97045.84;6214755;28;96604;-69
2022/04/07 06:17:44;;;;;;;;;6.00;6.00;;;;;18.66;39.30;97038.06;6214835;28;96233;-70
2022/04/07 06:20:47;;;;;;;;;5.00;5.00;;;;;18.76;39.05;97038.56;6131951;28;96215;-69
2022/04/07 06:23:52;;;;;;;;;5.80;5.00;;;;;18.84;38.63;97036.97;6065280;28;96274;-70
2022/04/07 06:26:55;;;;;;;;;5.00;5.00;;;;;18.86;38.27;97038.22;6077260;28;96809;-69
2022/04/07 06:29:58;;;;;;;;;4.00;4.00;;;;;18.99;38.28;97045.50;6087661;28;96222;-71
2022/04/07 06:33:03;;;;;;;;;4.00;4.00;;;;;19.13;37.75;97036.31;6088745;28;96262;-70
2022/04/07 06:36:06;;;;;;;;;4.00;4.00;;;;;19.14;37.36;97044.22;6087437;28;100014;-70
2022/04/07 06:39:09;;;;;;;;;4.00;3.60;;;;;19.27;37.42;97036.97;6086966;28;97725;-70
2022/04/07 06:42:12;;;;;;;;;4.00;4.00;;;;;19.49;37.36;97041.47;6167323;28;96514;-70
2022/04/07 06:45:16;;;;;;;;;4.00;3.20;;;;;19.64;37.32;97044.53;6212299;28;96325;-70
2022/04/07 06:48:21;;;;;;;;;3.00;2.00;;;;;19.93;36.25;97037.53;6211717;28;98473;-70
2022/04/07 06:51:24;;;;;;;;;2.20;2.20;;;;;20.11;35.81;97042.59;6088944;28;97557;-70
2022/04/07 06:54:27;;;;;;;;;2.00;2.00;;;;;20.38;36.14;97035.91;6103971;28;96250;-70
2022/04/07 06:57:30;;;;;;;;;2.00;2.00;;;;;20.61;34.78;97031.75;6087579;28;97733;-70
2022/04/07 07:00:35;;;;;;;;;2.00;2.00;;;;;20.92;34.54;97036.84;6086998;28;97611;-70
2022/04/07 07:03:40;;;;;;;;;2.40;2.00;;;;;21.20;33.58;97028.94;6069077;28;96448;-71
2022/04/07 07:06:44;;;;;;;;;1.60;1.60;;;;;21.51;32.71;97034.78;6104367;28;97209;-71
2022/04/07 07:09:47;;;;;;;;;1.40;1.40;;;;;21.76;32.59;97027.44;6087786;28;96304;-71
2022/04/07 07:12:52;;;;;;;;;2.00;2.00;;;;;21.92;31.82;97031.13;6087684;28;97846;-70
2022/04/07 07:15:57;;;;;;;;;4.00;3.00;;;;;22.29;31.66;97020.22;6088805;28;96231;-70
2022/04/07 07:19:02;;;;;;;;;4.00;4.00;;;;;22.70;30.52;97021.94;6088843;28;97396;-70
2022/04/07 07:22:06;;;;;;;;;3.75;3.00;;;;;22.83;30.31;97021.59;6087101;28;96292;-71
2022/04/07 07:25:11;;;;;;;;;3.00;3.00;;;;;22.93;29.93;97023.06;6087190;28;96789;-70
2022/04/07 07:28:14;;;;;;;;;2.80;2.80;;;;;22.92;29.54;97029.69;6101191;28;96437;-70
2022/04/07 07:31:17;;;;;;;;;2.00;2.00;;;;;22.99;29.44;97032.66;6087868;28;96763;-70
2022/04/07 07:34:22;;;;;;;;;3.00;2.00;;;;;22.98;28.35;97033.81;6086388;28;98452;-71
2022/04/07 07:37:25;;;;;;;;;1.00;1.00;;;;;23.00;28.44;97019.72;6087212;28;97172;-71
2022/04/07 07:40:30;;;;;;;;;2.40;2.40;;;;;23.31;28.52;97030.88;6071214;28;98081;-70
2022/04/07 07:43:33;;;;;;;;;2.00;2.00;;;;;23.21;28.07;97023.88;6088302;28;96805;-71
2022/04/07 07:46:37;;;;;;;;;1.00;1.00;;;;;23.67;28.09;97022.47;6088586;28;96686;-72
2022/04/07 07:49:41;;;;;;;;;1.00;1.00;;;;;23.97;28.15;97028.38;6063436;28;97394;-71
2022/04/07 07:52:44;;;;;;;;;1.50;1.50;;;;;24.08;27.84;97020.41;6063291;28;96472;-70
2022/04/07 07:55:49;;;;;;;;;2.40;2.00;;;;;24.07;27.35;97018.81;6064374;28;96280;-70
2022/04/07 07:58:52;;;;;;;;;0.80;0.80;;;;;24.07;27.61;97027.06;6062430;28;96819;-72
2022/04/07 08:01:55;;;;;;;;;2.00;2.00;;;;;24.05;27.14;97021.91;6064671;28;96436;-71
2022/04/07 08:05:00;;;;;;;;;2.00;2.00;;;;;24.13;28.09;97020.94;6171394;28;96279;-71
2022/04/07 08:08:03;;;;;;;;;1.00;1.00;;;;;24.13;27.90;97017.41;6125179;28;96389;-71
2022/04/07 08:11:07;;;;;;;;;1.00;1.00;;;;;24.02;27.96;97022.63;6212604;28;96330;-71
2022/04/07 08:14:10;;;;;;;;;1.00;1.00;;;;;23.87;27.22;97023.41;6211233;28;96929;-71
2022/04/07 08:17:14;;;;;;;;;1.00;0.00;;;;;23.98;27.15;97026.44;6196544;28;99363;-71
2022/04/07 08:20:19;;;;;;;;;1.00;0.00;;;;;24.02;26.68;97024.56;6087664;28;96233;-71
2022/04/07 08:23:22;;;;;;;;;0.00;0.00;;;;;23.84;26.81;97026.06;6085944;28;98189;-70
2022/04/07 08:26:25;;;;;;;;;0.00;0.00;;;;;23.71;26.77;97019.81;6176510;28;96700;-71
2022/04/07 08:29:29;;;;;;;;;1.00;1.00;;;;;23.56;27.13;97031.56;6212356;28;96626;-70
2022/04/07 08:32:33;;;;;;;;;1.00;1.00;;;;;23.25;27.61;97033.06;6198786;28;96794;-70
2022/04/07 08:35:38;;;;;;;;;1.00;1.00;;;;;23.09;27.87;97037.69;6078822;28;96313;-70
2022/04/07 08:38:41;;;;;;;;;2.00;1.00;;;;;22.97;28.07;97023.19;6063270;28;97472;-70
2022/04/07 08:41:45;;;;;;;;;2.00;2.00;;;;;23.07;28.36;97015.22;6207474;28;96388;-70
2022/04/07 08:44:49;;;;;;;;;0.00;0.00;;;;;23.05;28.41;97022.25;6212284;28;97434;-71
2022/04/07 08:47:56;;;;;;;;;0.60;0.00;;;;;22.71;28.39;97001.59;6210435;28;97720;-71
2022/04/07 08:51:02;;;;;;;;;1.40;1.00;;;;;22.54;28.79;97023.75;6211301;28;96759;-71
2022/04/07 08:54:12;;;;;;;;;2.00;2.00;;;;;22.78;28.68;97013.59;6210396;28;98037;-71
2022/04/07 08:57:16;;;;;;;;;1.00;1.00;;;;;22.89;28.32;97036.69;6211377;28;96468;-70
2022/04/07 09:00:20;;;;;;;;;1.00;1.00;;;;;23.15;28.20;97006.06;6109257;28;96595;-71
2022/04/07 09:03:24;;;;;;;;;1.00;1.00;;;;;23.08;28.23;97014.09;6104766;28;97521;-71
2022/04/07 09:06:29;;;;;;;;;1.40;1.40;;;;;23.12;28.21;97011.44;6090640;28;97436;-71
2022/04/07 09:09:33;;;;;;;;;1.00;1.00;;;;;22.88;28.11;96979.31;6152108;28;97370;-71
2022/04/07 09:12:38;;;;;;;;;1.00;1.00;;;;;23.29;28.22;97003.72;6102831;28;98212;-71
2022/04/07 09:15:43;;;;;;;;;1.00;1.00;;;;;23.51;27.74;96996.88;6087572;28;96301;-70
2022/04/07 09:18:48;;;;;;;;;2.00;2.00;;;;;23.77;26.99;96992.84;6090657;28;96318;-70
2022/04/07 09:22:06;;;;;;;;;2.00;2.00;;;;;23.73;27.37;96998.25;6090419;28;97386;-70
2022/04/07 09:25:12;;;;;;;;;0.60;0.60;;;;;23.64;27.39;96995.69;6088843;28;96726;-69
2022/04/07 09:28:27;;;;;;;;;0.40;0.40;;;;;23.62;27.48;96977.91;6088959;28;96548;-71
2022/04/07 09:31:30;;;;;;;;;1.00;1.00;;;;;24.17;26.96;96975.06;6089124;28;96695;-70
2022/04/07 09:34:34;;;;;;;;;2.00;1.00;;;;;24.89;26.37;96967.28;6124509;28;99411;-72
2022/04/07 09:37:45;;;;;;;;;1.00;1.00;;;;;25.23;25.82;96964.84;6090550;28;96434;-71
2022/04/07 09:40:49;;;;;;;;;2.00;2.00;;;;;25.46;25.21;96960.97;6090049;28;96727;-70
2022/04/07 09:43:57;;;;;;;;;1.00;1.00;;;;;25.61;25.48;96951.03;6088512;28;97577;-70
2022/04/07 09:47:10;;;;;;;;;2.00;2.00;;;;;25.45;25.60;96948.34;6090363;28;96757;-72
2022/04/07 09:50:21;;;;;;;;;2.00;2.00;;;;;25.42;25.62;96951.81;6090028;28;96309;-71
2022/04/07 09:53:26;;;;;;;;;2.00;2.00;;;;;25.31;25.52;96941.75;6104825;28;96365;-71
2022/04/07 09:56:30;;;;;;;;;2.60;2.60;;;;;24.87;25.73;96922.78;6094796;28;96272;-71
2022/04/07 09:59:34;;;;;;;;;2.00;1.60;;;;;25.01;26.23;96939.59;6123134;28;96269;-72
2022/04/07 10:02:38;;;;;;;;;2.00;1.00;;;;;25.11;26.69;96942.94;6087706;28;96856;-70
2022/04/07 10:05:42;;;;;;;;;2.00;2.00;;;;;25.61;26.02;96926.19;6094369;28;97630;-71
2022/04/07 10:08:50;;;;;;;;;3.00;2.00;;;;;25.99;25.40;96935.53;6081655;28;97354;-72
2022/04/07 10:11:55;;;;;;;;;2.00;2.00;;;;;26.44;25.19;96923.66;6068563;28;97392;-70
2022/04/07 10:14:59;;;;;;;;;2.00;2.00;;;;;26.95;24.63;96927.53;6062249;28;97416;-72
2022/04/07 10:18:09;;;;;;;;;2.00;2.00;;;;;27.09;24.72;96916.66;6109225;28;98006;-71
2022/04/07 10:21:23;;;;;;;;;2.00;2.00;;;;;26.92;24.47;96916.44;6064042;28;96787;-72
2022/04/07 10:24:34;;;;;;;;;3.00;3.00;;;;;26.94;24.22;96909.34;6079977;28;97448;-71
2022/04/07 10:28:00;;;;;;;;;1.00;1.00;;;;;26.86;24.14;96909.59;6069584;28;96776;-71
2022/04/07 10:31:14;;;;;;;;;3.40;3.00;;;;;26.56;24.53;96891.06;6185470;28;96516;-71
2022/04/07 10:34:32;;;;;;;;;4.00;3.00;;;;;26.68;24.75;96887.28;6087867;28;96493;-71
2022/04/07 10:37:43;;;;;;;;;4.00;4.00;;;;;26.45;24.21;96881.81;6066820;28;97394;-71
2022/04/07 10:40:51;;;;;;;;;2.00;2.00;;;;;26.59;24.86;96872.91;6066884;28;97423;-71
2022/04/07 10:44:08;;;;;;;;;2.00;2.00;;;;;26.30;24.87;96863.44;6065224;28;97975;-71
2022/04/07 10:47:11;;;;;;;;;3.00;3.00;;;;;26.13;25.38;96858.44;6065519;28;96365;-70
2022/04/07 10:50:19;;;;;;;;;2.25;2.25;;;;;25.97;25.73;96855.03;6065492;28;96298;-71
2022/04/07 10:53:25;;;;;;;;;2.00;2.00;;;;;25.64;25.62;96853.72;6065547;28;96341;-71
2022/04/07 10:56:34;;;;;;;;;2.00;2.00;;;;;25.52;26.56;96842.03;6089336;28;97022;-70
2022/04/07 10:59:41;;;;;;;;;3.40;3.00;;;;;25.42;26.67;96835.16;6087788;28;96346;-72
2022/04/07 11:02:45;;;;;;;;;5.00;4.00;;;;;25.40;26.61;96827.28;6083229;28;97408;-70
2022/04/07 11:05:54;;;;;;;;;3.00;3.00;;;;;25.32;26.85;96835.78;6081332;28;97414;-71
2022/04/07 11:09:12;;;;;;;;;2.25;2.25;;;;;25.33;26.95;96818.88;6082891;28;97610;-71
2022/04/07 11:12:23;;;;;;;;;4.00;3.00;;;;;25.19;26.48;96817.81;6089830;28;96362;-70
2022/04/07 11:15:34;;;;;;;;;2.00;2.00;;;;;25.05;26.68;96812.84;6080068;28;96990;-70
2022/04/07 11:19:04;;;;;;;;;3.00;2.60;;;;;25.25;26.60;96808.88;6068014;28;96524;-72
2022/04/07 11:22:09;;;;;;;;;2.00;2.00;;;;;25.25;26.94;96808.88;6069289;28;97882;-70
2022/04/07 11:25:13;;;;;;;;;3.00;3.00;;;;;24.94;26.70;96804.38;6063626;28;96574;-70
2022/04/07 11:28:19;;;;;;;;;2.00;2.00;;;;;24.83;26.58;96808.06;6069931;28;97625;-71
2022/04/07 11:31:41;;;;;;;;;2.00;2.00;;;;;24.35;27.22;96803.94;6065561;28;97350;-70
2022/04/07 11:34:52;;;;;;;;;2.00;2.00;;;;;24.49;27.66;96798.72;6066920;28;96849;-71
2022/04/07 11:37:56;;;;;;;;;3.40;3.00;;;;;24.21;26.64;96798.94;6081932;28;96516;-70
2022/04/07 11:40:59;;;;;;;;;2.00;2.00;;;;;23.84;26.39;96794.94;6083635;28;97445;-71
2022/04/07 11:44:10;;;;;;;;;3.00;2.00;;;;;23.50;26.64;96791.00;6086064;28;96749;-71
2022/04/07 11:47:24;;;;;;;;;2.00;1.60;;;;;23.39;26.73;96796.19;6087686;28;97288;-72
2022/04/07 11:50:27;;;;;;;;;2.00;2.00;;;;;23.25;27.15;96793.09;6086270;28;98492;-69
2022/04/07 11:53:33;;;;;;;;;3.00;2.00;;;;;23.19;27.63;96776.06;6084288;28;97547;-71
2022/04/07 11:56:40;;;;;;;;;3.00;2.60;;;;;23.25;28.11;96774.66;6084187;28;97148;-70
2022/04/07 11:59:45;;;;;;;;;3.00;2.00;;;;;23.08;28.11;96787.91;6080495;28;97170;-70
2022/04/07 12:02:58;;;;;;;;;2.00;2.00;;;;;22.94;28.26;96771.06;6069004;28;96747;-71
2022/04/07 12:06:02;;;;;;;;;1.00;1.00;;;;;23.10;27.53;96772.69;6064527;28;99559;-71
2022/04/07 12:09:06;;;;;;;;;2.00;2.00;;;;;23.21;26.62;96762.75;6095829;28;96840;-71
2022/04/07 12:12:12;;;;;;;;;1.40;1.00;;;;;23.25;26.91;96752.66;6081917;28;97786;-71
2022/04/07 12:15:18;;;;;;;;;1.00;1.00;;;;;23.47;26.46;96758.69;6084804;28;97419;-71
2022/04/07 12:18:26;;;;;;;;;1.00;1.00;;;;;23.46;26.43;96752.38;6070738;28;97455;-69
2022/04/07 12:21:50;;;;;;;;;2.00;1.00;;;;;23.50;26.43;96745.03;6070291;28;96313;-70
2022/04/07 12:25:01;;;;;;;;;1.00;1.00;;;;;23.69;26.05;96739.59;6083257;28;98069;-70
2022/04/07 12:28:09;;;;;;;;;2.00;2.00;;;;;23.75;25.97;96731.81;6065937;28;97043;-71
2022/04/07 12:31:22;;;;;;;;;2.00;2.00;;;;;24.02;25.77;96719.84;6074538;28;97390;-71
2022/04/07 12:34:26;;;;;;;;;2.00;2.00;;;;;24.27;26.05;96716.84;6067418;28;97439;-70
2022/04/07 12:37:33;;;;;;;;;2.00;2.00;;;;;25.06;25.09;96698.66;6094725;28;97918;-71
2022/04/07 12:40:37;;;;;;;;;3.00;3.00;;;;;25.37;24.59;96686.53;6073206;28;97054;-71
2022/04/07 12:43:45;;;;;;;;;2.00;2.00;;;;;25.45;24.83;96702.03;6084734;28;97091;-70
2022/04/07 12:46:52;;;;;;;;;2.00;2.00;;;;;25.31;24.72;96704.59;6079842;28;97156;-70
2022/04/07 12:49:57;;;;;;;;;3.00;3.00;;;;;25.13;24.82;96700.72;6073380;28;97436;-69
2022/04/07 12:53:01;;;;;;;;;3.00;2.00;;;;;24.84;25.18;96688.38;6085741;28;97405;-70
2022/04/07 12:56:19;;;;;;;;;4.00;4.00;;;;;24.82;25.65;96680.50;6074241;28;97492;-71
2022/04/07 12:59:22;;;;;;;;;2.60;2.60;;;;;25.18;25.01;96675.59;6074921;28;99436;-70
2022/04/07 13:02:44;;;;;;;;;3.00;3.00;;;;;25.66;24.53;96668.44;6069928;28;97777;-70
2022/04/07 13:05:47;;;;;;;;;2.80;2.00;;;;;25.90;24.66;96659.72;6082492;28;97754;-71
2022/04/07 13:08:50;;;;;;;;;4.00;3.00;;;;;26.10;24.08;96655.63;6065521;28;97253;-72
2022/04/07 13:11:54;;;;;;;;;3.00;3.00;;;;;26.21;24.06;96652.97;6074412;28;99543;-71
2022/04/07 13:15:00;;;;;;;;;1.80;1.80;;;;;26.41;23.60;96634.28;6087192;28;98122;-70
2022/04/07 13:18:05;;;;;;;;;2.00;2.00;;;;;26.52;23.31;96636.00;6089158;28;97403;-70
2022/04/07 13:21:10;;;;;;;;;3.00;2.60;;;;;26.56;22.10;96620.25;6089090;28;96488;-70
2022/04/07 13:24:13;;;;;;;;;3.00;2.80;;;;;26.36;23.03;96615.28;6075592;28;97825;-71
2022/04/07 13:27:16;;;;;;;;;2.00;2.00;;;;;26.10;22.97;96610.63;6098716;28;96453;-70
2022/04/07 13:30:20;;;;;;;;;3.50;3.00;;;;;26.07;23.62;96609.44;6110374;28;96359;-70
2022/04/07 13:33:24;;;;;;;;;1.00;1.00;;;;;25.75;23.69;96602.75;6101157;28;96551;-70
2022/04/07 13:36:29;;;;;;;;;2.00;2.00;;;;;25.51;23.99;96594.94;6073612;28;96695;-69
2022/04/07 13:39:32;;;;;;;;;1.80;1.80;;;;;25.25;23.76;96559.91;6079672;28;96874;-70
2022/04/07 13:42:36;;;;;;;;;2.00;2.00;;;;;25.35;23.48;96586.84;6079305;28;97450;-71
2022/04/07 13:45:39;;;;;;;;;3.00;2.33;;;;;25.38;23.36;96580.56;6087394;28;96875;-70
2022/04/07 13:48:44;;;;;;;;;3.00;2.00;;;;;25.40;23.49;96581.78;6074105;28;97436;-71
2022/04/07 13:51:48;;;;;;;;;2.80;2.00;;;;;25.32;23.00;96576.53;6086074;28;97350;-71
2022/04/07 13:54:56;;;;;;;;;1.50;1.50;;;;;25.71;22.68;96566.81;6097399;28;96818;-72
2022/04/07 13:57:59;;;;;;;;;3.00;2.00;;;;;25.73;22.72;96560.94;6087604;28;97419;-72
2022/04/07 14:01:04;;;;;;;;;2.60;2.60;;;;;25.81;23.60;96554.31;6082957;28;97364;-71
2022/04/07 14:04:10;;;;;;;;;2.00;2.00;;;;;26.10;23.49;96545.16;6078530;28;97417;-71
2022/04/07 14:07:14;;;;;;;;;3.00;3.00;;;;;25.98;22.15;96534.41;6145315;28;98888;-71
2022/04/07 14:10:17;;;;;;;;;1.60;1.60;;;;;25.74;22.31;96551.50;6104382;28;96480;-72
2022/04/07 14:13:23;;;;;;;;;2.00;2.00;;;;;25.65;22.71;96548.25;6079686;28;97470;-72
2022/04/07 14:16:26;;;;;;;;;3.00;3.00;;;;;25.74;23.08;96516.41;6097494;28;96707;-70
2022/04/07 14:19:31;;;;;;;;;2.20;2.20;;;;;25.79;23.10;96510.56;6101484;28;97925;-70
2022/04/07 14:22:35;;;;;;;;;4.00;3.00;;;;;25.73;23.67;96483.66;6087125;28;96363;-71
2022/04/07 14:25:38;;;;;;;;;3.00;2.20;;;;;25.66;23.19;96500.13;6081969;28;99357;-71